createdAt,value
2023-10-09T00:00:39.696Z,102664.97
2023-10-09T00:05:47.913Z,102664.00
2023-10-09T00:10:58.611Z,102660.44
2023-10-09T00:16:16.112Z,102666.78
2023-10-09T00:21:21.969Z,102660.66
2023-10-09T00:26:24.450Z,102663.25
2023-10-09T00:31:34.971Z,102662.63
2023-10-09T00:36:52.206Z,102659.97
2023-10-09T00:41:55.790Z,102653.47
2023-10-09T00:47:08.914Z,102649.94
2023-10-09T00:52:19.455Z,102651.78
2023-10-09T00:57:26.038Z,102645.66
2023-10-09T01:02:43.459Z,102636.75
2023-10-09T01:07:47.495Z,102635.03
2023-10-09T01:12:56.466Z,102629.56
2023-10-09T01:18:01.272Z,102624.31
2023-10-09T01:23:03.823Z,102627.00
2023-10-09T01:28:06.410Z,102625.16
2023-10-09T01:33:23.717Z,102611.00
2023-10-09T01:38:41.964Z,102606.63
2023-10-09T01:43:46.152Z,102620.88
2023-10-09T01:48:48.248Z,102618.19
2023-10-09T01:53:58.234Z,102613.94
2023-10-09T01:59:06.995Z,102614.81
2023-10-09T02:04:15.817Z,102618.56
2023-10-09T02:09:28.571Z,102611.38
2023-10-09T02:14:30.901Z,102605.16
2023-10-09T02:19:35.698Z,102600.53
2023-10-09T02:24:51.602Z,102606.13
2023-10-09T02:29:54.572Z,102605.41
2023-10-09T02:34:57.308Z,102602.59
2023-10-09T02:40:04.047Z,102602.59
2023-10-09T02:45:12.215Z,102609.91
2023-10-09T02:50:20.552Z,102614.28
2023-10-09T02:55:27.177Z,102611.47
2023-10-09T03:00:33.376Z,102610.88
2023-10-09T03:05:43.883Z,102607.34
2023-10-09T03:10:46.750Z,102613.56
2023-10-09T03:15:49.758Z,102626.00
2023-10-09T03:20:51.996Z,102623.31
2023-10-09T03:25:59.197Z,102619.88
2023-10-09T03:31:08.408Z,102620.75
2023-10-09T03:36:10.725Z,102619.88
2023-10-09T03:41:17.100Z,102611.09
2023-10-09T03:46:24.030Z,102624.41
2023-10-09T03:51:27.635Z,102618.44
2023-10-09T03:56:29.801Z,102619.13
2023-10-09T04:01:39.476Z,102615.59
2023-10-09T04:06:42.212Z,102617.44
2023-10-09T04:11:44.950Z,102616.59
2023-10-09T04:16:53.256Z,102623.78
2023-10-09T04:21:56.975Z,102613.06
2023-10-09T04:26:59.454Z,102607.91
2023-10-09T04:32:02.298Z,102606.94
2023-10-09T04:37:27.580Z,102608.78
2023-10-09T04:42:52.772Z,102610.50
2023-10-09T04:48:08.236Z,102609.63
2023-10-09T04:53:16.556Z,102617.69
2023-10-09T04:58:25.335Z,102613.28
2023-10-09T05:03:44.585Z,102618.66
2023-10-09T05:08:47.722Z,102624.09
2023-10-09T05:13:59.332Z,102623.41
2023-10-09T05:19:04.685Z,102623.25
2023-10-09T05:24:13.853Z,102628.63
2023-10-09T05:29:21.528Z,102629.47
2023-10-09T05:34:36.187Z,102630.44
2023-10-09T05:39:44.960Z,102635.09
2023-10-09T05:45:05.776Z,102643.13
2023-10-09T05:50:14.713Z,102656.63
2023-10-09T05:55:25.779Z,102651.28
2023-10-09T06:00:46.333Z,102652.25
2023-10-09T06:06:03.077Z,102657.59
2023-10-09T06:11:28.677Z,102658.47
2023-10-09T06:16:42.988Z,102659.31
2023-10-09T06:21:54.116Z,102659.22
2023-10-09T06:27:02.213Z,102655.78
2023-10-09T06:32:27.741Z,102653.09
2023-10-09T06:37:32.688Z,102671.88
2023-10-09T06:42:35.241Z,102672.72
2023-10-09T06:47:43.932Z,102673.69
2023-10-09T06:53:09.643Z,102684.31
2023-10-09T06:58:16.731Z,102690.53
2023-10-09T07:03:21.400Z,102702.09
2023-10-09T07:08:38.781Z,102704.03
2023-10-09T07:13:40.900Z,102707.56
2023-10-09T07:18:51.062Z,102710.13
2023-10-09T07:23:58.002Z,102705.63
2023-10-09T07:29:17.634Z,102719.16
2023-10-09T07:34:38.403Z,102717.31
2023-10-09T07:39:51.051Z,102724.25
2023-10-09T07:44:57.960Z,102733.31
2023-10-09T07:50:00.758Z,102740.50
2023-10-09T07:55:03.926Z,102744.03
2023-10-09T08:00:25.043Z,102753.75
2023-10-09T08:05:34.665Z,102746.56
2023-10-09T08:10:59.113Z,102758.16
2023-10-09T08:16:05.398Z,102752.16
2023-10-09T08:21:07.709Z,102754.63
2023-10-09T08:26:17.637Z,102753.88
2023-10-09T08:31:36.190Z,102754.63
2023-10-09T08:36:38.676Z,102763.41
2023-10-09T08:41:42.250Z,102764.38
2023-10-09T08:46:44.603Z,102762.56
2023-10-09T08:51:48.576Z,102763.41
2023-10-09T08:56:51.457Z,102764.28
2023-10-09T09:01:54.305Z,102762.44
2023-10-09T09:06:56.618Z,102759.75
2023-10-09T09:12:01.888Z,102759.88
2023-10-09T09:17:06.328Z,102749.91
2023-10-09T09:22:15.183Z,102758.03
2023-10-09T09:27:19.969Z,102753.44
2023-10-09T09:32:39.843Z,102755.16
2023-10-09T09:37:44.919Z,102750.88
2023-10-09T09:42:50.239Z,102757.84
2023-10-09T09:47:56.101Z,102748.94
2023-10-09T09:52:59.835Z,102748.94
2023-10-09T09:58:07.705Z,102742.59
2023-10-09T10:03:34.642Z,102738.22
2023-10-09T10:08:40.635Z,102740.66
2023-10-09T10:13:42.877Z,102726.53
2023-10-09T10:19:22.880Z,102731.88
2023-10-09T10:24:31.991Z,102735.38
2023-10-09T10:29:35.542Z,102724.66
2023-10-09T10:34:59.457Z,102731.03
2023-10-09T10:40:02.842Z,102729.19
2023-10-09T10:45:25.704Z,102723.69
2023-10-09T10:50:30.588Z,102727.25
2023-10-09T10:55:32.772Z,102723.50
2023-10-09T11:00:53.438Z,102726.16
2023-10-09T11:05:57.286Z,102720.91
2023-10-09T11:11:17.197Z,102711.91
2023-10-09T11:16:38.437Z,102710.09
2023-10-09T11:21:44.426Z,102703.97
2023-10-09T11:26:55.501Z,102701.06
2023-10-09T11:32:10.806Z,102694.84
2023-10-09T11:37:13.055Z,102682.16
2023-10-09T11:42:16.010Z,102679.63
2023-10-09T11:47:21.402Z,102673.41
2023-10-09T11:52:33.139Z,102667.06
2023-10-09T11:57:36.553Z,102652.81
2023-10-09T12:02:45.775Z,102659.63
2023-10-09T12:07:55.343Z,102656.22
2023-10-09T12:13:00.534Z,102649.03
2023-10-09T12:18:03.169Z,102645.47
2023-10-09T12:23:08.628Z,102643.66
2023-10-09T12:28:13.583Z,102638.28
2023-10-09T12:33:17.150Z,102640.00
2023-10-09T12:38:24.192Z,102632.72
2023-10-09T12:43:29.242Z,102625.53
2023-10-09T12:48:33.329Z,102617.50
2023-10-09T12:53:35.572Z,102617.34
2023-10-09T12:58:40.321Z,102614.81
2023-10-09T13:03:44.203Z,102615.53
2023-10-09T13:08:46.818Z,102609.28
2023-10-09T13:13:52.155Z,102600.41
2023-10-09T13:19:00.837Z,102602.25
2023-10-09T13:24:03.660Z,102594.06
2023-10-09T13:29:10.459Z,102599.31
2023-10-09T13:34:16.551Z,102592.13
2023-10-09T13:39:26.317Z,102584.09
2023-10-09T13:44:29.302Z,102586.66
2023-10-09T13:49:31.871Z,102581.41
2023-10-09T13:54:34.334Z,102575.06
2023-10-09T13:59:38.178Z,102573.25
2023-10-09T14:04:40.352Z,102575.00
2023-10-09T14:09:45.248Z,102566.81
2023-10-09T14:14:50.687Z,102569.38
2023-10-09T14:19:54.668Z,102562.31
2023-10-09T14:24:57.006Z,102561.34
2023-10-09T14:30:02.356Z,102548.88
2023-10-09T14:35:14.590Z,102552.31
2023-10-09T14:40:22.660Z,102555.00
2023-10-09T14:45:27.714Z,102554.03
2023-10-09T14:50:30.318Z,102546.84
2023-10-09T14:55:33.166Z,102543.31
2023-10-09T15:00:35.651Z,102537.09
2023-10-09T15:05:37.895Z,102544.00
2023-10-09T15:10:50.330Z,102549.28
2023-10-09T15:15:52.631Z,102541.34
2023-10-09T15:20:55.029Z,102546.59
2023-10-09T15:25:57.292Z,102545.72
2023-10-09T15:31:00.924Z,102542.94
2023-10-09T15:36:12.512Z,102541.22
2023-10-09T15:41:16.778Z,102537.69
2023-10-09T15:46:19.083Z,102539.41
2023-10-09T15:51:21.690Z,102538.44
2023-10-09T15:56:24.257Z,102546.47
2023-10-09T16:01:26.515Z,102545.63
2023-10-09T16:06:32.511Z,102535.75
2023-10-09T16:11:35.400Z,102540.16
2023-10-09T16:16:43.254Z,102535.75
2023-10-09T16:21:46.102Z,102536.50
2023-10-09T16:26:52.564Z,102540.16
2023-10-09T16:31:56.732Z,102542.81
2023-10-09T16:36:58.982Z,102535.75
2023-10-09T16:42:02.525Z,102543.69
2023-10-09T16:47:05.639Z,102548.06
2023-10-09T16:52:12.676Z,102548.06
2023-10-09T16:57:14.889Z,102551.59
2023-10-09T17:02:24.171Z,102548.06
2023-10-09T17:07:29.185Z,102544.66
2023-10-09T17:12:31.348Z,102545.50
2023-10-09T17:17:33.517Z,102542.81
2023-10-09T17:22:35.896Z,102548.06
2023-10-09T17:27:38.199Z,102543.69
2023-10-09T17:32:40.339Z,102548.19
2023-10-09T17:37:42.834Z,102558.06
2023-10-09T17:42:45.923Z,102556.22
2023-10-09T17:47:53.248Z,102562.56
2023-10-09T17:53:00.933Z,102558.91
2023-10-09T17:58:11.539Z,102567.81
2023-10-09T18:03:17.146Z,102565.25
2023-10-09T18:08:19.504Z,102572.44
2023-10-09T18:13:22.263Z,102559.25
2023-10-09T18:18:24.540Z,102559.88
2023-10-09T18:23:30.377Z,102554.75
2023-10-09T18:28:32.631Z,102559.13
2023-10-09T18:33:34.763Z,102551.09
2023-10-09T18:38:39.718Z,102556.56
2023-10-09T18:43:43.337Z,102553.78
2023-10-09T18:48:47.087Z,102556.47
2023-10-09T18:53:49.555Z,102564.50
2023-10-09T18:58:52.201Z,102556.47
2023-10-09T19:03:54.593Z,102553.78
2023-10-09T19:08:59.843Z,102554.63
2023-10-09T19:14:02.178Z,102562.78
2023-10-09T19:19:09.487Z,102555.75
2023-10-09T19:24:14.992Z,102561.22
2023-10-09T19:29:17.331Z,102569.28
2023-10-09T19:34:19.662Z,102569.28
2023-10-09T19:39:21.885Z,102568.41
2023-10-09T19:44:24.149Z,102575.50
2023-10-09T19:49:27.483Z,102576.47
2023-10-09T19:54:29.936Z,102577.44
2023-10-09T19:59:32.045Z,102577.31
2023-10-09T20:04:34.177Z,102589.88
2023-10-09T20:09:36.325Z,102586.31
2023-10-09T20:14:39.101Z,102590.94
2023-10-09T20:19:41.458Z,102596.19
2023-10-09T20:24:43.851Z,102591.69
2023-10-09T20:29:47.945Z,102590.09
2023-10-09T20:34:53.397Z,102595.34
2023-10-09T20:40:00.154Z,102595.59
2023-10-09T20:45:02.734Z,102597.06
2023-10-09T20:50:08.368Z,102594.47
2023-10-09T20:55:11.548Z,102596.19
2023-10-09T21:00:20.603Z,102594.59
2023-10-09T21:05:27.419Z,102596.19
2023-10-09T21:10:31.460Z,102599.00
2023-10-09T21:15:36.338Z,102600.97
2023-10-09T21:20:39.707Z,102599.13
2023-10-09T21:25:42.063Z,102591.09
2023-10-09T21:30:44.414Z,102590.09
2023-10-09T21:35:46.697Z,102587.41
2023-10-09T21:40:52.234Z,102592.78
2023-10-09T21:45:59.422Z,102600.69
2023-10-09T21:51:01.750Z,102594.59
2023-10-09T21:56:09.060Z,102596.44
2023-10-09T22:01:13.331Z,102590.22
2023-10-09T22:06:16.676Z,102595.59
2023-10-09T22:11:19.749Z,102590.22
2023-10-09T22:16:23.891Z,102586.66
2023-10-09T22:21:26.237Z,102591.09
2023-10-09T22:26:28.433Z,102583.97
2023-10-09T22:31:30.643Z,102587.53
2023-10-09T22:36:53.129Z,102590.31
2023-10-09T22:41:56.776Z,102583.22
2023-10-09T22:47:01.395Z,102582.25
2023-10-09T22:52:12.548Z,102580.44
2023-10-09T22:57:14.970Z,102571.66
2023-10-09T23:02:24.117Z,102569.81
2023-10-09T23:07:26.414Z,102565.44
2023-10-09T23:12:36.184Z,102553.00
2023-10-09T23:17:49.421Z,102556.53
2023-10-09T23:22:53.103Z,102552.13
2023-10-09T23:28:15.597Z,102546.66
2023-10-09T23:33:23.776Z,102551.31
2023-10-09T23:38:36.144Z,102547.63
2023-10-09T23:43:46.134Z,102543.25
2023-10-09T23:48:54.128Z,102547.88
2023-10-09T23:54:03.003Z,102547.88
2023-10-09T23:59:13.043Z,102542.41
